Language: 


Des rapports , des résumés tant et plus, au choix de chacun....


Données statistiques de la station
Quotidien Rapport Septembre 13, 2017 Unités:  Métrique    Anglais   les deux
« Précédent Jour
Suivant Jour »
Quotidien Hebdomadaire Mensuel Annuel Actuel
  Haut: Bas: Moyen:
Température: 19.2 °C 0.0 °C 15.7 °C
Pt de rosée: 15.0 °C 10.0 °C 12.5 °C
Humidité: 98 % 0 % 79 %
Vitesse du vent: 49.2 km/h 0.0 km/h 20.5 km/h
Rafales: 49.2 km/h - -
Vent:- - WSW
Pression: 1003.9 hPa 0.0 hPa -
Précipitation: 3.0 mm    
Historical Graphs
 
 
Données statistiques pour Septembre 13, 2017
Heure Température Point de rosée Pression Vent Vitesse du vent Refales Humidité Pluie (taux horaire)
00:03 14.4 °C 12.0 °C 1003.9 hPa SSW 12.6 km/h 24.8 km/h 84 % 0.0 mm
00:08 14.4 °C 12.0 °C 1003.9 hPa SSW 9.3 km/h 21.2 km/h 84 % 0.0 mm
00:13 14.4 °C 12.0 °C 1003.9 hPa SSW 8.7 km/h 21.2 km/h 84 % 0.0 mm
00:18 14.4 °C 12.0 °C 1002.9 hPa SSW 8.7 km/h 20.6 km/h 84 % 0.0 mm
00:19 14.4 °C 12.0 °C 1002.9 hPa South 9.0 km/h 20.9 km/h 84 % 0.0 mm
00:24 14.7 °C 12.0 °C 1002.9 hPa WSW 12.6 km/h 22.7 km/h 83 % 0.0 mm
00:29 14.7 °C 12.0 °C 1002.9 hPa SSW 9.0 km/h 27.4 km/h 83 % 0.0 mm
00:34 14.7 °C 12.0 °C 1001.9 hPa WSW 13.7 km/h 27.4 km/h 83 % 0.0 mm
00:39 14.7 °C 12.0 °C 1001.9 hPa SSW 20.1 km/h 21.9 km/h 83 % 0.0 mm
00:45 14.7 °C 12.0 °C 1001.9 hPa WSW 12.6 km/h 21.9 km/h 83 % 0.0 mm
00:50 14.8 °C 12.0 °C 1002.9 hPa SSW 12.6 km/h 24.8 km/h 82 % 0.0 mm
00:55 14.8 °C 12.0 °C 1002.9 hPa SSW 20.6 km/h 29.9 km/h 82 % 0.0 mm
01:00 14.8 °C 12.0 °C 1001.9 hPa SSW 20.9 km/h 30.9 km/h 82 % 0.0 mm
01:05 15.0 °C 12.0 °C 1001.9 hPa WSW 24.5 km/h 30.9 km/h 79 % 0.0 mm
01:10 15.0 °C 12.0 °C 1001.9 hPa SSW 23.8 km/h 33.5 km/h 79 % 0.0 mm
01:15 15.0 °C 12.0 °C 1001.9 hPa South 31.4 km/h 33.5 km/h 79 % 0.0 mm
01:21 15.0 °C 11.0 °C 1001.9 hPa SW 26.2 km/h 35.2 km/h 74 % 0.0 mm
01:26 15.0 °C 11.0 °C 1001.9 hPa SSW 20.6 km/h 40.7 km/h 74 % 0.0 mm
01:31 15.0 °C 11.0 °C 1000.9 hPa SW 16.6 km/h 40.7 km/h 74 % 0.0 mm
01:36 15.0 °C 11.0 °C 1000.9 hPa South 12.2 km/h 35.6 km/h 74 % 0.0 mm
01:41 15.0 °C 11.0 °C 1000.9 hPa WSW 17.7 km/h 27.7 km/h 74 % 0.0 mm
01:46 15.0 °C 11.0 °C 1000.9 hPa South 15.8 km/h 27.7 km/h 74 % 0.0 mm
01:51 15.0 °C 11.0 °C 1000.9 hPa SSW 23.3 km/h 27.4 km/h 74 % 0.0 mm
01:56 15.0 °C 11.0 °C 1000.9 hPa SW 11.9 km/h 27.4 km/h 74 % 0.0 mm
02:01 15.0 °C 11.0 °C 1000.9 hPa WSW 10.1 km/h 26.7 km/h 74 % 0.0 mm
02:06 15.0 °C 11.0 °C 1000.9 hPa SSW 17.2 km/h 27.7 km/h 74 % 0.0 mm
02:11 15.0 °C 11.0 °C 1000.9 hPa SSW 20.1 km/h 27.7 km/h 74 % 0.0 mm
02:16 15.0 °C 11.0 °C 999.9 hPa SSW 18.0 km/h 26.7 km/h 74 % 0.0 mm
02:21 13.1 °C 13.0 °C 999.9 hPa South 19.8 km/h 31.4 km/h 95 % 0.0 mm
02:26 13.0 °C 13.0 °C 999.9 hPa SW 36.0 km/h 36.0 km/h 95 % 0.0 mm
02:31 13.0 °C 13.0 °C 999.9 hPa WSW 16.9 km/h 36.0 km/h 96 % 0.0 mm
02:36 13.0 °C 13.0 °C 999.9 hPa SSW 16.9 km/h 36.0 km/h 96 % 0.0 mm
02:38 13.0 °C 13.0 °C 999.9 hPa South 21.2 km/h 23.0 km/h 96 % 0.0 mm
02:43 13.0 °C 13.0 °C 999.9 hPa South 13.0 km/h 24.5 km/h 96 % 0.0 mm
02:48 13.0 °C 13.0 °C 998.9 hPa SSW 19.1 km/h 26.2 km/h 96 % 0.0 mm
02:53 13.0 °C 13.0 °C 998.9 hPa SW 20.1 km/h 28.0 km/h 96 % 0.0 mm
02:58 13.0 °C 13.0 °C 998.9 hPa SW 13.7 km/h 28.0 km/h 96 % 0.0 mm
03:12 0.0 °C 13.0 °C 0.0 hPa Calm     0 % 0.0 mm
03:17 0.0 °C 13.0 °C 998.9 hPa WSW 20.1 km/h 25.9 km/h 0 % 0.0 mm
03:22 13.3 °C 13.0 °C 998.9 hPa SSW 20.1 km/h 28.5 km/h 98 % 0.0 mm
03:27 13.4 °C 13.0 °C 998.9 hPa South 12.6 km/h 28.5 km/h 98 % 0.0 mm
03:32 13.4 °C 13.0 °C 998.9 hPa SW 19.8 km/h 27.7 km/h 98 % 0.0 mm
03:37 13.6 °C 14.0 °C 998.9 hPa SW 21.9 km/h 27.7 km/h 98 % 0.0 mm
03:42 13.6 °C 14.0 °C 998.9 hPa SW 10.1 km/h 28.8 km/h 98 % 0.0 mm
03:47 13.8 °C 14.0 °C 997.9 hPa South 16.6 km/h 28.8 km/h 98 % 0.0 mm
03:53 13.8 °C 14.0 °C 997.9 hPa SW 14.0 km/h 26.2 km/h 98 % 0.0 mm
03:58 13.8 °C 14.0 °C 997.9 hPa SW 32.0 km/h 32.0 km/h 98 % 0.0 mm
04:03 13.8 °C 14.0 °C 997.9 hPa SSW 36.7 km/h 36.7 km/h 98 % 0.0 mm
04:08 14.0 °C 14.0 °C 997.9 hPa SW 28.5 km/h 36.7 km/h 98 % 0.0 mm
04:13 14.0 °C 14.0 °C 997.9 hPa SSW 18.0 km/h 28.5 km/h 98 % 0.0 mm
04:18 14.0 °C 14.0 °C 997.9 hPa SW 16.9 km/h 24.8 km/h 98 % 0.0 mm
04:23 14.1 °C 14.0 °C 997.9 hPa WSW 17.2 km/h 24.8 km/h 98 % 0.0 mm
04:28 14.2 °C 14.0 °C 997.9 hPa WSW 24.8 km/h 24.8 km/h 98 % 0.0 mm
04:33 14.2 °C 14.0 °C 996.8 hPa SW 30.9 km/h 30.9 km/h 98 % 0.0 mm
04:38 14.3 °C 14.0 °C 996.8 hPa South 23.8 km/h 30.9 km/h 98 % 0.0 mm
04:43 14.3 °C 14.0 °C 996.8 hPa SSW 30.6 km/h 30.6 km/h 98 % 0.0 mm
04:48 14.3 °C 14.0 °C 996.2 hPa WSW 13.0 km/h 30.6 km/h 98 % 0.3 mm
04:53 14.3 °C 14.0 °C 996.2 hPa SW 15.8 km/h 21.2 km/h 98 % 0.3 mm
04:58 14.2 °C 14.0 °C 996.2 hPa WSW 24.8 km/h 24.8 km/h 98 % 0.5 mm
05:03 14.2 °C 14.0 °C 996.2 hPa WSW 20.9 km/h 24.8 km/h 98 % 1.0 mm
05:08 14.3 °C 14.0 °C 996.2 hPa WSW 20.6 km/h 24.8 km/h 98 % 2.3 mm
05:14 14.3 °C 14.0 °C 996.2 hPa WSW 14.0 km/h 21.2 km/h 98 % 2.5 mm
05:19 14.3 °C 14.0 °C 996.8 hPa WSW 15.8 km/h 21.2 km/h 98 % 2.5 mm
05:24 14.3 °C 14.0 °C 996.8 hPa SSW 18.3 km/h 20.9 km/h 98 % 2.5 mm
05:27 14.3 °C 14.0 °C 996.8 hPa WSW 20.9 km/h 20.9 km/h 98 % 2.5 mm
05:32 14.6 °C 15.0 °C 996.8 hPa WSW 18.3 km/h 20.9 km/h 98 % 2.8 mm
05:37 14.7 °C 15.0 °C 996.8 hPa WSW 16.3 km/h 18.3 km/h 98 % 2.8 mm
05:42 14.7 °C 15.0 °C 996.8 hPa WSW 25.6 km/h 25.6 km/h 98 % 2.8 mm
05:47 14.8 °C 15.0 °C 996.2 hPa SW 24.5 km/h 25.6 km/h 98 % 2.8 mm
05:52 14.9 °C 15.0 °C 996.2 hPa West 17.2 km/h 24.5 km/h 98 % 2.5 mm
05:57 15.0 °C 15.0 °C 996.2 hPa WSW 14.0 km/h 24.8 km/h 98 % 2.3 mm
06:02 15.0 °C 15.0 °C 996.8 hPa WSW 23.0 km/h 24.8 km/h 98 % 1.8 mm
06:07 15.1 °C 15.0 °C 996.8 hPa WSW 16.6 km/h 23.0 km/h 98 % 1.3 mm
06:12 15.1 °C 15.0 °C 996.8 hPa WSW 16.6 km/h 23.0 km/h 98 % 0.3 mm
06:17 15.1 °C 15.0 °C 996.8 hPa West 38.1 km/h 38.1 km/h 98 % 0.3 mm
06:23 15.2 °C 15.0 °C 996.8 hPa WSW 16.9 km/h 38.1 km/h 96 % 0.3 mm
06:28 15.2 °C 15.0 °C 996.8 hPa WSW 37.0 km/h 37.0 km/h 96 % 0.3 mm
06:33 15.2 °C 15.0 °C 996.8 hPa SSW 28.5 km/h 37.0 km/h 96 % 0.0 mm
06:38 15.2 °C 15.0 °C 996.8 hPa West 36.7 km/h 37.0 km/h 96 % 0.0 mm
06:43 15.3 °C 13.0 °C 996.8 hPa West 36.7 km/h 36.7 km/h 88 % 0.0 mm
06:48 15.3 °C 13.0 °C 996.2 hPa West 23.0 km/h 36.7 km/h 88 % 0.0 mm
06:53 15.3 °C 13.0 °C 996.2 hPa SSW 20.1 km/h 30.9 km/h 88 % 0.0 mm
06:58 15.3 °C 13.0 °C 996.2 hPa West 35.6 km/h 35.6 km/h 88 % 0.0 mm
07:03 15.2 °C 13.0 °C 996.8 hPa SW 20.1 km/h 35.6 km/h 88 % 0.0 mm
07:08 15.2 °C 13.0 °C 996.8 hPa WSW 30.2 km/h 34.6 km/h 88 % 0.0 mm
07:13 15.2 °C 13.0 °C 996.8 hPa WSW 28.0 km/h 34.6 km/h 88 % 0.0 mm
07:18 15.2 °C 13.0 °C 996.2 hPa WSW 28.0 km/h 34.6 km/h 88 % 0.0 mm
07:23 15.2 °C 13.0 °C 996.2 hPa WSW 17.2 km/h 31.7 km/h 88 % 0.0 mm
07:28 15.6 °C 13.0 °C 996.2 hPa WSW 23.8 km/h 32.8 km/h 86 % 0.0 mm
07:33 15.6 °C 13.0 °C 996.8 hPa West 22.4 km/h 32.8 km/h 86 % 0.0 mm
07:38 15.5 °C 14.0 °C 996.8 hPa West 22.4 km/h 29.1 km/h 88 % 0.0 mm
07:43 15.5 °C 14.0 °C 996.8 hPa West 22.4 km/h 29.1 km/h 88 % 0.3 mm
07:53 14.9 °C 14.0 °C 997.9 hPa West 29.1 km/h 29.1 km/h 94 % 0.3 mm
07:58 14.9 °C 14.0 °C 997.9 hPa WSW 17.2 km/h 29.1 km/h 94 % 0.3 mm
08:03 14.9 °C 14.0 °C 997.9 hPa WSW 18.0 km/h 28.5 km/h 94 % 0.3 mm
08:08 15.0 °C 14.0 °C 997.9 hPa WSW 18.0 km/h 28.5 km/h 93 % 0.3 mm
08:13 15.2 °C 14.0 °C 997.9 hPa WSW 18.0 km/h 20.1 km/h 92 % 0.3 mm
08:18 15.3 °C 14.0 °C 998.9 hPa WSW 20.6 km/h 28.0 km/h 91 % 0.3 mm
08:23 15.3 °C 14.0 °C 998.9 hPa WSW 23.3 km/h 28.0 km/h 91 % 0.3 mm
08:28 15.3 °C 14.0 °C 998.9 hPa WSW 15.8 km/h 23.3 km/h 91 % 0.3 mm
08:33 15.3 °C 14.0 °C 998.9 hPa South 14.0 km/h 24.5 km/h 91 % 0.3 mm
08:38 15.3 °C 14.0 °C 998.9 hPa WSW 21.2 km/h 25.9 km/h 91 % 0.3 mm
08:43 15.3 °C 14.0 °C 998.9 hPa West 27.7 km/h 27.7 km/h 91 % 0.0 mm
08:48 15.3 °C 14.0 °C 998.9 hPa West 19.8 km/h 29.1 km/h 91 % 0.0 mm
08:53 15.3 °C 14.0 °C 998.9 hPa WSW 20.6 km/h 29.1 km/h 91 % 0.0 mm
08:58 15.3 °C 14.0 °C 998.9 hPa WSW 17.7 km/h 28.5 km/h 91 % 0.0 mm
09:03 15.7 °C 13.0 °C 998.9 hPa West 26.7 km/h 28.5 km/h 84 % 0.0 mm
09:08 15.7 °C 13.0 °C 998.9 hPa WSW 17.2 km/h 26.7 km/h 84 % 0.0 mm
09:13 15.7 °C 13.0 °C 998.9 hPa West 38.1 km/h 38.1 km/h 84 % 0.0 mm
09:18 16.0 °C 12.0 °C 997.9 hPa West 25.3 km/h 38.1 km/h 77 % 0.0 mm
09:23 16.0 °C 12.0 °C 997.9 hPa WSW 20.6 km/h 36.0 km/h 77 % 0.0 mm
09:28 16.0 °C 12.0 °C 997.9 hPa West 24.5 km/h 36.0 km/h 77 % 0.0 mm
09:33 16.0 °C 12.0 °C 998.9 hPa WSW 23.8 km/h 30.2 km/h 77 % 0.0 mm
09:39 16.0 °C 12.0 °C 998.9 hPa West 20.9 km/h 30.2 km/h 77 % 0.0 mm
09:44 16.5 °C 13.0 °C 998.9 hPa WSW 24.5 km/h 30.6 km/h 78 % 0.0 mm
09:49 16.5 °C 13.0 °C 999.9 hPa WNW 36.7 km/h 36.7 km/h 78 % 0.0 mm
09:54 16.5 °C 13.0 °C 999.9 hPa West 38.1 km/h 38.1 km/h 78 % 0.0 mm
09:59 16.5 °C 13.0 °C 999.9 hPa WSW 23.8 km/h 38.1 km/h 78 % 0.0 mm
10:02 16.5 °C 13.0 °C 1000.9 hPa West 22.4 km/h 38.1 km/h 78 % 0.0 mm
10:07 16.8 °C 12.0 °C 1000.9 hPa WSW 32.0 km/h 32.0 km/h 71 % 0.0 mm
10:12 17.0 °C 12.0 °C 1000.9 hPa West 35.2 km/h 35.2 km/h 70 % 0.0 mm
10:17 16.8 °C 11.0 °C 1000.9 hPa West 31.4 km/h 35.2 km/h 70 % 0.0 mm
10:22 16.8 °C 11.0 °C 1000.9 hPa West 28.5 km/h 35.2 km/h 70 % 0.0 mm
10:27 16.8 °C 11.0 °C 1000.9 hPa West 27.0 km/h 31.4 km/h 70 % 0.0 mm
10:32 16.8 °C 11.0 °C 1000.9 hPa West 26.2 km/h 33.8 km/h 70 % 0.0 mm
10:37 16.8 °C 11.0 °C 1000.9 hPa West 15.4 km/h 37.5 km/h 70 % 0.0 mm
10:42 17.3 °C 12.0 °C 1000.9 hPa West 23.3 km/h 38.1 km/h 68 % 0.0 mm
10:47 17.6 °C 11.0 °C 1000.9 hPa West 27.0 km/h 38.1 km/h 64 % 0.0 mm
10:52 17.6 °C 11.0 °C 1000.9 hPa West 18.3 km/h 35.6 km/h 64 % 0.0 mm
10:57 17.6 °C 11.0 °C 1000.9 hPa West 16.9 km/h 34.6 km/h 64 % 0.0 mm
11:02 17.6 °C 11.0 °C 1000.9 hPa West 22.7 km/h 38.1 km/h 64 % 0.0 mm
11:07 17.9 °C 12.0 °C 1000.9 hPa West 20.6 km/h 38.1 km/h 65 % 0.0 mm
11:12 17.9 °C 12.0 °C 1000.9 hPa WSW 24.5 km/h 45.7 km/h 65 % 0.0 mm
11:17 17.9 °C 12.0 °C 999.9 hPa West 49.2 km/h 49.2 km/h 65 % 0.0 mm
11:22 17.9 °C 12.0 °C 999.9 hPa West 17.7 km/h 49.2 km/h 65 % 0.0 mm
11:27 17.9 °C 12.0 °C 999.9 hPa WSW 38.5 km/h 38.5 km/h 65 % 0.0 mm
11:32 17.9 °C 12.0 °C 1000.9 hPa West 26.2 km/h 38.5 km/h 65 % 0.0 mm
11:37 17.9 °C 12.0 °C 1000.9 hPa WSW 31.7 km/h 37.5 km/h 65 % 0.0 mm
11:42 17.9 °C 12.0 °C 1000.9 hPa WSW 21.2 km/h 37.5 km/h 65 % 0.0 mm
11:47 17.9 °C 12.0 °C 1001.9 hPa West 28.0 km/h 32.0 km/h 65 % 0.0 mm
11:52 17.9 °C 12.0 °C 1001.9 hPa West 25.9 km/h 39.3 km/h 65 % 0.0 mm
11:57 17.9 °C 12.0 °C 1001.9 hPa West 24.5 km/h 39.3 km/h 65 % 0.0 mm
12:02 17.9 °C 12.0 °C 1001.9 hPa WSW 12.6 km/h 37.5 km/h 65 % 0.0 mm
12:07 17.9 °C 12.0 °C 1001.9 hPa West 23.8 km/h 37.5 km/h 65 % 0.0 mm
12:12 17.9 °C 12.0 °C 1001.9 hPa West 19.8 km/h 36.0 km/h 65 % 0.0 mm
12:17 18.7 °C 12.0 °C 1001.9 hPa West 19.8 km/h 31.4 km/h 64 % 0.0 mm
12:22 18.7 °C 12.0 °C 1001.9 hPa WSW 22.4 km/h 35.6 km/h 64 % 0.0 mm
12:27 18.6 °C 12.0 °C 1001.9 hPa West 28.5 km/h 35.6 km/h 64 % 0.0 mm
12:33 18.4 °C 11.0 °C 1001.9 hPa WSW 34.3 km/h 40.7 km/h 61 % 0.0 mm
12:38 18.4 °C 11.0 °C 1001.9 hPa West 41.7 km/h 41.7 km/h 60 % 0.0 mm
12:43 18.4 °C 11.0 °C 1001.9 hPa West 23.3 km/h 42.5 km/h 60 % 0.0 mm
12:48 18.4 °C 11.0 °C 1001.9 hPa West 26.2 km/h 42.5 km/h 60 % 0.0 mm
12:53 18.4 °C 11.0 °C 1001.9 hPa West 13.7 km/h 39.3 km/h 60 % 0.0 mm
12:58 17.9 °C 11.0 °C 1001.9 hPa WSW 16.3 km/h 30.9 km/h 64 % 0.0 mm
13:03 17.2 °C 13.0 °C 1002.9 hPa WSW 13.7 km/h 32.8 km/h 73 % 0.0 mm
13:08 17.2 °C 13.0 °C 1002.9 hPa WSW 20.9 km/h 32.8 km/h 73 % 0.0 mm
13:13 16.4 °C 12.0 °C 1002.9 hPa WSW 11.9 km/h 24.8 km/h 74 % 0.0 mm
13:18 16.4 °C 12.0 °C 1002.9 hPa West 36.4 km/h 36.4 km/h 74 % 0.0 mm
13:23 16.0 °C 12.0 °C 1002.9 hPa West 26.2 km/h 40.4 km/h 77 % 0.0 mm
13:28 16.0 °C 12.0 °C 1002.9 hPa WSW 21.6 km/h 40.4 km/h 77 % 0.0 mm
13:33 16.0 °C 12.0 °C 1002.9 hPa SW 14.0 km/h 36.7 km/h 77 % 0.0 mm
13:38 16.0 °C 12.0 °C 1002.9 hPa West 9.0 km/h 25.6 km/h 77 % 0.0 mm
13:48 16.0 °C 12.0 °C 1002.9 hPa SSW 14.3 km/h 24.5 km/h 77 % 0.0 mm
13:53 18.4 °C 14.0 °C 1002.9 hPa WSW 23.3 km/h 23.3 km/h 77 % 0.0 mm
13:58 18.4 °C 14.0 °C 1002.9 hPa South 20.6 km/h 23.3 km/h 77 % 0.0 mm
14:03 18.4 °C 14.0 °C 1002.9 hPa WSW 16.6 km/h 25.3 km/h 77 % 0.0 mm
14:08 18.4 °C 14.0 °C 1002.9 hPa WSW 12.6 km/h 25.3 km/h 77 % 0.0 mm
14:13 18.4 °C 14.0 °C 1002.9 hPa SSW 13.0 km/h 24.8 km/h 77 % 0.0 mm
14:18 18.4 °C 13.0 °C 1002.9 hPa SSW 9.0 km/h 24.8 km/h 73 % 0.0 mm
14:23 18.2 °C 14.0 °C 1002.9 hPa SW 14.0 km/h 27.4 km/h 74 % 0.0 mm
14:28 18.2 °C 14.0 °C 1002.9 hPa WSW 12.6 km/h 27.4 km/h 74 % 0.0 mm
14:33 18.0 °C 14.0 °C 1002.9 hPa SSW 13.0 km/h 19.1 km/h 75 % 0.0 mm
14:38 18.0 °C 14.0 °C 1002.9 hPa WSW 24.8 km/h 24.8 km/h 75 % 0.0 mm
14:43 18.2 °C 14.0 °C 1002.9 hPa WSW 25.3 km/h 25.3 km/h 75 % 0.0 mm
14:48 18.2 °C 13.0 °C 1002.9 hPa WSW 27.4 km/h 27.4 km/h 72 % 0.0 mm
14:54 19.2 °C 13.0 °C 1002.9 hPa WSW 36.0 km/h 36.0 km/h 65 % 0.0 mm
14:59 19.2 °C 13.0 °C 1002.9 hPa West 20.1 km/h 37.0 km/h 65 % 0.0 mm
15:04 19.2 °C 13.0 °C 1002.9 hPa West 37.0 km/h 43.6 km/h 65 % 0.0 mm
15:09 19.2 °C 13.0 °C 1002.9 hPa WSW 34.3 km/h 43.6 km/h 65 % 0.0 mm
15:14 19.2 °C 13.0 °C 1002.9 hPa West 21.9 km/h 39.3 km/h 65 % 0.0 mm
15:19 19.2 °C 13.0 °C 1002.9 hPa West 39.6 km/h 39.6 km/h 65 % 0.0 mm
15:24 19.2 °C 13.0 °C 1002.9 hPa West 37.5 km/h 39.6 km/h 65 % 0.0 mm
15:29 19.2 °C 13.0 °C 1002.9 hPa West 31.7 km/h 37.5 km/h 65 % 0.0 mm
15:34 19.2 °C 13.0 °C 1002.9 hPa West 20.1 km/h 37.0 km/h 65 % 0.0 mm
15:39 19.2 °C 13.0 °C 1002.9 hPa WSW 28.0 km/h 31.7 km/h 65 % 0.0 mm
15:44 17.9 °C 13.0 °C 1002.9 hPa WSW 16.9 km/h 37.8 km/h 72 % 0.0 mm
15:49 17.7 °C 12.0 °C 1002.9 hPa WSW 30.9 km/h 43.6 km/h 67 % 0.0 mm
15:54 17.7 °C 12.0 °C 1002.9 hPa West 28.5 km/h 43.6 km/h 67 % 0.0 mm
15:59 17.7 °C 12.0 °C 1002.9 hPa West 23.0 km/h 38.5 km/h 67 % 0.0 mm
16:05 17.7 °C 12.0 °C 1002.9 hPa SW 28.0 km/h 33.8 km/h 67 % 0.0 mm
16:10 18.3 °C 12.0 °C 1002.9 hPa West 23.8 km/h 40.4 km/h 64 % 0.0 mm
16:15 18.3 °C 12.0 °C 1002.9 hPa West 16.3 km/h 40.4 km/h 64 % 0.0 mm
16:20 18.4 °C 12.0 °C 1002.9 hPa West 20.9 km/h 32.8 km/h 65 % 0.0 mm
16:25 18.8 °C 12.0 °C 1002.9 hPa West 22.7 km/h 33.1 km/h 65 % 0.0 mm
16:30 18.8 °C 11.0 °C 1002.9 hPa WSW 24.8 km/h 33.1 km/h 61 % 0.0 mm
16:35 18.8 °C 11.0 °C 1002.9 hPa WSW 40.4 km/h 40.4 km/h 61 % 0.0 mm
16:40 18.2 °C 11.0 °C 1002.9 hPa West 27.0 km/h 40.4 km/h 60 % 0.0 mm
16:45 18.0 °C 11.0 °C 1002.9 hPa WSW 28.8 km/h 37.0 km/h 62 % 0.0 mm
16:50 18.0 °C 10.0 °C 1002.9 hPa West 24.8 km/h 38.1 km/h 60 % 0.0 mm
16:55 18.2 °C 11.0 °C 1002.9 hPa West 23.8 km/h 38.1 km/h 62 % 0.0 mm
17:00 18.2 °C 11.0 °C 1002.9 hPa West 30.2 km/h 40.7 km/h 62 % 0.0 mm
17:05 18.2 °C 11.0 °C 1002.9 hPa WSW 27.4 km/h 40.7 km/h 62 % 0.0 mm
17:10 18.2 °C 11.0 °C 1002.9 hPa WSW 21.2 km/h 39.6 km/h 62 % 0.0 mm
17:15 18.2 °C 11.0 °C 1001.9 hPa West 36.0 km/h 39.6 km/h 62 % 0.0 mm
17:20 18.2 °C 11.0 °C 1001.9 hPa WSW 20.9 km/h 39.6 km/h 62 % 0.0 mm
17:25 17.6 °C 10.0 °C 1001.9 hPa West 30.2 km/h 30.2 km/h 61 % 0.0 mm
17:30 17.5 °C 11.0 °C 1001.9 hPa West 24.5 km/h 31.7 km/h 65 % 0.0 mm
17:35 17.5 °C 11.0 °C 1001.9 hPa WSW 31.7 km/h 31.7 km/h 65 % 0.0 mm
17:40 17.5 °C 11.0 °C 1001.9 hPa WSW 29.9 km/h 37.8 km/h 65 % 0.0 mm
17:45 18.1 °C 11.0 °C 1001.9 hPa WSW 26.2 km/h 37.8 km/h 63 % 0.0 mm
17:50 18.3 °C 11.0 °C 1001.9 hPa SW 27.7 km/h 30.9 km/h 63 % 0.0 mm
17:55 18.3 °C 11.0 °C 1001.9 hPa West 17.2 km/h 36.4 km/h 63 % 0.0 mm
18:00 17.3 °C 11.0 °C 1001.9 hPa WSW 25.3 km/h 36.4 km/h 64 % 0.0 mm
18:05 17.2 °C 11.0 °C 1001.9 hPa WSW 17.2 km/h 33.8 km/h 64 % 0.0 mm
18:10 17.2 °C 11.0 °C 1001.9 hPa WSW 29.1 km/h 37.5 km/h 66 % 0.0 mm
18:15 17.5 °C 12.0 °C 1001.9 hPa WSW 15.4 km/h 37.5 km/h 68 % 0.0 mm
18:20 17.6 °C 12.0 °C 1001.9 hPa West 28.0 km/h 29.9 km/h 69 % 0.0 mm
18:25 17.6 °C 12.0 °C 1001.9 hPa WSW 19.8 km/h 29.9 km/h 69 % 0.0 mm
18:31 17.2 °C 12.0 °C 1000.9 hPa West 15.8 km/h 24.8 km/h 70 % 0.0 mm
18:36 17.3 °C 12.0 °C 1000.9 hPa West 20.9 km/h 24.5 km/h 70 % 0.0 mm
18:41 17.3 °C 12.0 °C 1000.9 hPa WSW 20.1 km/h 25.6 km/h 70 % 0.0 mm
18:46 17.3 °C 12.0 °C 1001.9 hPa West 13.0 km/h 25.6 km/h 70 % 0.0 mm
18:51 17.3 °C 12.0 °C 1001.9 hPa West 28.5 km/h 28.5 km/h 70 % 0.0 mm
18:56 17.3 °C 12.0 °C 1001.9 hPa WSW 20.9 km/h 28.5 km/h 70 % 0.0 mm
19:01 17.3 °C 12.0 °C 1000.9 hPa West 18.3 km/h 20.9 km/h 70 % 0.0 mm
19:06 16.4 °C 12.0 °C 1000.9 hPa West 15.8 km/h 20.9 km/h 73 % 0.0 mm
19:11 16.4 °C 12.0 °C 1000.9 hPa WSW 9.7 km/h 24.5 km/h 73 % 0.0 mm
19:16 16.3 °C 12.0 °C 1000.9 hPa WSW 7.9 km/h 24.5 km/h 74 % 0.0 mm
19:21 16.3 °C 12.0 °C 1000.9 hPa SSW 8.7 km/h 17.2 km/h 74 % 0.0 mm
19:26 16.3 °C 12.0 °C 1000.9 hPa WSW 19.8 km/h 19.8 km/h 75 % 0.0 mm
19:31 16.2 °C 12.0 °C 1000.9 hPa SW 15.1 km/h 20.1 km/h 74 % 0.0 mm
19:36 16.2 °C 12.0 °C 1000.9 hPa SW 12.2 km/h 24.5 km/h 74 % 0.0 mm
19:41 16.2 °C 12.0 °C 1000.9 hPa WSW 13.7 km/h 24.5 km/h 74 % 0.0 mm
19:46 16.2 °C 12.0 °C 1000.9 hPa WSW 19.8 km/h 20.9 km/h 74 % 0.0 mm
19:51 15.3 °C 12.0 °C 1000.9 hPa SW 19.8 km/h 28.5 km/h 81 % 0.0 mm
19:57 15.2 °C 13.0 °C 1000.9 hPa WSW 17.7 km/h 28.5 km/h 82 % 0.0 mm
20:02 15.2 °C 13.0 °C 1000.9 hPa SSW 6.9 km/h 21.6 km/h 82 % 0.0 mm
20:07 15.2 °C 13.0 °C 1000.9 hPa SW 14.0 km/h 19.8 km/h 82 % 0.0 mm
20:12 15.2 °C 13.0 °C 1000.9 hPa WSW 16.9 km/h 16.9 km/h 82 % 0.0 mm
20:17 15.0 °C 13.0 °C 1000.9 hPa WSW 15.4 km/h 23.3 km/h 84 % 0.0 mm
20:22 15.0 °C 13.0 °C 1000.9 hPa West 20.9 km/h 21.2 km/h 84 % 0.0 mm
20:27 15.0 °C 13.0 °C 1000.9 hPa WSW 13.7 km/h 21.2 km/h 84 % 0.0 mm
20:32 15.0 °C 13.0 °C 1001.9 hPa SSW 12.6 km/h 19.5 km/h 84 % 0.0 mm
20:37 15.0 °C 13.0 °C 1001.9 hPa WSW 20.6 km/h 20.6 km/h 84 % 0.0 mm
20:42 14.9 °C 13.0 °C 1001.9 hPa WSW 13.0 km/h 22.4 km/h 85 % 0.0 mm
20:43 14.9 °C 13.0 °C 1001.9 hPa West 15.4 km/h 22.4 km/h 85 % 0.0 mm
20:49 14.8 °C 13.0 °C 1000.9 hPa SW 14.0 km/h 22.4 km/h 88 % 0.0 mm
20:53 14.7 °C 13.0 °C 1000.9 hPa SSW 17.7 km/h 23.3 km/h 89 % 0.0 mm
20:59 14.7 °C 13.0 °C 1000.9 hPa WSW 12.2 km/h 17.7 km/h 89 % 0.0 mm
21:04 14.3 °C 13.0 °C 1000.9 hPa WSW 17.2 km/h 21.6 km/h 91 % 0.0 mm
21:09 14.3 °C 13.0 °C 1000.9 hPa WSW 21.2 km/h 22.4 km/h 91 % 0.0 mm
21:12 14.3 °C 13.0 °C 1000.9 hPa WSW 16.9 km/h 22.4 km/h 91 % 0.0 mm
21:17 14.3 °C 13.0 °C 1000.9 hPa West 20.9 km/h 22.4 km/h 91 % 0.0 mm
21:19 14.1 °C 13.0 °C 1000.9 hPa WSW 10.5 km/h 20.9 km/h 91 % 0.0 mm
21:24 14.0 °C 13.0 °C 1000.9 hPa West 13.7 km/h 20.9 km/h 91 % 0.0 mm
21:29 13.9 °C 13.0 °C 1000.9 hPa SW 15.8 km/h 20.1 km/h 92 % 0.0 mm
21:34 13.9 °C 13.0 °C 1000.9 hPa WSW 14.0 km/h 21.2 km/h 92 % 0.0 mm
21:50 0.0 °C 13.0 °C 0.0 hPa Calm     0 % 0.0 mm
21:55 13.8 °C 13.0 °C 1000.9 hPa SW 9.3 km/h 16.9 km/h 92 % 0.0 mm
22:00 13.8 °C 13.0 °C 1000.9 hPa WSW 10.1 km/h 20.9 km/h 92 % 0.0 mm
22:05 13.7 °C 13.0 °C 1000.9 hPa West 16.6 km/h 20.9 km/h 92 % 0.0 mm
22:10 13.7 °C 13.0 °C 1000.9 hPa West 17.7 km/h 19.5 km/h 91 % 0.0 mm
22:15 13.8 °C 13.0 °C 1001.9 hPa West 13.7 km/h 19.1 km/h 91 % 0.0 mm
22:20 13.8 °C 13.0 °C 1001.9 hPa WSW 12.2 km/h 19.1 km/h 91 % 0.0 mm
22:25 13.7 °C 12.0 °C 1001.9 hPa WSW 13.0 km/h 16.9 km/h 89 % 0.0 mm
22:30 13.6 °C 12.0 °C 1000.9 hPa WSW 16.9 km/h 18.3 km/h 88 % 0.0 mm
22:35 13.5 °C 12.0 °C 1000.9 hPa WSW 16.3 km/h 20.6 km/h 86 % 0.0 mm
22:40 13.5 °C 12.0 °C 1000.9 hPa WSW 16.3 km/h 20.9 km/h 86 % 0.0 mm
22:45 13.5 °C 12.0 °C 1000.9 hPa WSW 13.7 km/h 20.9 km/h 86 % 0.0 mm
22:50 13.3 °C 11.0 °C 1000.9 hPa SW 14.0 km/h 16.6 km/h 85 % 0.0 mm
22:55 13.3 °C 11.0 °C 1000.9 hPa WSW 7.9 km/h 15.8 km/h 85 % 0.0 mm
23:00 13.2 °C 11.0 °C 1001.9 hPa WSW 10.1 km/h 15.8 km/h 85 % 0.0 mm
23:05 13.1 °C 11.0 °C 1001.9 hPa WSW 8.7 km/h 16.6 km/h 86 % 0.0 mm
23:10 13.1 °C 11.0 °C 1001.9 hPa WSW 10.5 km/h 16.6 km/h 86 % 0.0 mm
23:15 13.1 °C 11.0 °C 1001.9 hPa WSW 9.7 km/h 13.7 km/h 86 % 0.0 mm
23:20 12.9 °C 11.0 °C 1001.9 hPa WSW 7.9 km/h 12.6 km/h 86 % 0.0 mm
23:25 12.7 °C 11.0 °C 1001.9 hPa WSW 10.1 km/h 11.9 km/h 86 % 0.0 mm
23:30 12.7 °C 11.0 °C 1001.9 hPa WSW 6.9 km/h 11.9 km/h 86 % 0.0 mm
23:36 12.5 °C 11.0 °C 1001.9 hPa WSW 10.1 km/h 11.9 km/h 88 % 0.0 mm
23:41 12.5 °C 11.0 °C 1001.9 hPa WSW 9.7 km/h 11.9 km/h 88 % 0.0 mm
23:46 12.6 °C 11.0 °C 1001.9 hPa WSW 9.0 km/h 13.7 km/h 89 % 0.0 mm
23:51 12.7 °C 11.0 °C 1001.9 hPa West 6.9 km/h 13.7 km/h 89 % 0.0 mm
23:56 12.7 °C 11.0 °C 1001.9 hPa Calm   9.3 km/h 89 % 0.0 mm
Le Gheer Warneton
Courtoisie de Weather Underground - 2.25 mb

Mise a jour : 17-12-17 07:20:13
Généré par Cumulus 1.9.4 (1099)